Time;durP1;ratioP1;P1;durP2;ratioP2;P2;SDS_P1;SDS_P2;PMS_P1;PMS_P2;Temp;Humidity;BMP_temperature;BMP_pressure;BME280_temperature;BME280_humidity;BME280_pressure;Samples;Min_cycle;Max_cycle;Signal;HPM_P1;HPM_P2
2023/10/10 00:00:54;;;;;;;4.53;2.50;;;;;;;;;;5072391;28;20205;-74
2023/10/10 00:03:22;;;;;;;3.77;2.57;;;;;;;;;;5072723;28;20204;-73
2023/10/10 00:05:52;;;;;;;4.53;3.00;;;;;;;;;;5073127;28;20262;-73
2023/10/10 00:08:27;;;;;;;6.80;4.17;;;;;;;;;;5072145;28;20205;-73
2023/10/10 00:10:55;;;;;;;7.20;3.07;;;;;;;;;;5072091;28;20212;-73
2023/10/10 00:13:23;;;;;;;3.77;2.40;;;;;;;;;;5071920;28;20240;-73
2023/10/10 00:15:55;;;;;;;3.90;2.70;;;;;;;;;;5072216;28;20197;-73
2023/10/10 00:18:24;;;;;;;5.27;3.30;;;;;;;;;;5072382;28;20229;-73
2023/10/10 00:21:06;;;;;;;6.67;3.43;;;;;;;;;;5072043;28;20235;-73
2023/10/10 00:23:39;;;;;;;3.47;3.00;;;;;;;;;;5072240;28;20283;-73
2023/10/10 00:26:10;;;;;;;3.77;2.93;;;;;;;;;;5072514;28;20197;-73
2023/10/10 00:28:39;;;;;;;4.83;2.40;;;;;;;;;;5072278;28;20199;-73
2023/10/10 00:31:10;;;;;;;3.50;2.47;;;;;;;;;;5072322;28;20201;-73
2023/10/10 00:33:38;;;;;;;5.57;2.57;;;;;;;;;;5072004;28;20197;-73
2023/10/10 00:36:10;;;;;;;4.20;2.50;;;;;;;;;;5071741;28;20197;-73
2023/10/10 00:38:37;;;;;;;2.73;2.20;;;;;;;;;;5046923;28;20225;-73
2023/10/10 00:41:08;;;;;;;5.87;2.50;;;;;;;;;;5071450;28;20218;-73
2023/10/10 00:43:36;;;;;;;3.13;2.63;;;;;;;;;;5071949;28;20201;-73
2023/10/10 00:46:04;;;;;;;3.50;2.70;;;;;;;;;;5070937;28;20201;-73
2023/10/10 00:48:34;;;;;;;8.20;3.33;;;;;;;;;;5071332;28;20205;-73
2023/10/10 00:51:06;;;;;;;3.20;2.20;;;;;;;;;;5071167;28;20658;-73
2023/10/10 00:53:35;;;;;;;5.13;2.60;;;;;;;;;;5072036;28;20210;-73
2023/10/10 00:56:06;;;;;;;6.77;2.63;;;;;;;;;;5071323;28;20387;-73
2023/10/10 00:58:37;;;;;;;2.37;2.20;;;;;;;;;;5071178;28;20235;-73
2023/10/10 01:01:12;;;;;;;3.83;2.13;;;;;;;;;;5071146;28;20694;-73
2023/10/10 01:03:42;;;;;;;6.20;2.50;;;;;;;;;;5072199;28;20227;-73
2023/10/10 01:06:24;;;;;;;7.30;3.30;;;;;;;;;;5064371;28;20281;-73
2023/10/10 01:08:53;;;;;;;4.00;2.77;;;;;;;;;;5066441;28;20692;-73
2023/10/10 01:11:20;;;;;;;3.37;3.07;;;;;;;;;;5071225;28;20311;-73
2023/10/10 01:13:47;;;;;;;4.93;2.77;;;;;;;;;;5070807;28;20202;-73
2023/10/10 01:16:14;;;;;;;3.13;2.57;;;;;;;;;;5070974;28;20266;-73
2023/10/10 01:18:51;;;;;;;9.77;2.67;;;;;;;;;;5070523;28;20237;-74
2023/10/10 01:21:28;;;;;;;2.73;2.37;;;;;;;;;;5071420;28;20209;-74
2023/10/10 01:23:58;;;;;;;4.13;2.73;;;;;;;;;;5065345;28;20201;-73
2023/10/10 01:26:29;;;;;;;5.93;2.50;;;;;;;;;;5064339;28;20204;-73
2023/10/10 01:28:59;;;;;;;3.23;2.10;;;;;;;;;;5046071;28;20193;-73
2023/10/10 01:31:30;;;;;;;7.33;2.67;;;;;;;;;;5070700;28;20197;-73
2023/10/10 01:34:00;;;;;;;4.07;2.77;;;;;;;;;;5071215;28;20231;-73
2023/10/10 01:36:29;;;;;;;3.27;2.83;;;;;;;;;;5070385;28;20205;-73
2023/10/10 01:39:23;;;;;;;4.80;2.30;;;;;;;;;;5070806;28;20772;-73
2023/10/10 01:41:50;;;;;;;3.13;2.83;;;;;;;;;;5045085;28;20672;-73
2023/10/10 01:44:18;;;;;;;3.63;2.70;;;;;;;;;;5070149;28;20217;-73
2023/10/10 01:46:46;;;;;;;2.90;2.53;;;;;;;;;;5070798;28;20197;-73
2023/10/10 01:49:20;;;;;;;3.40;2.53;;;;;;;;;;5070991;28;20232;-74
2023/10/10 01:51:55;;;;;;;3.53;2.80;;;;;;;;;;5070771;28;20203;-73
2023/10/10 01:54:21;;;;;;;2.93;2.13;;;;;;;;;;5069965;28;20679;-73
2023/10/10 01:56:51;;;;;;;5.90;2.33;;;;;;;;;;5070322;28;20675;-73
2023/10/10 01:59:24;;;;;;;5.07;3.27;;;;;;;;;;5070480;28;20278;-73
2023/10/10 02:01:52;;;;;;;3.07;2.80;;;;;;;;;;5069985;28;20201;-73
2023/10/10 02:04:27;;;;;;;4.23;3.03;;;;;;;;;;5070624;28;20216;-73
2023/10/10 02:06:57;;;;;;;5.10;2.40;;;;;;;;;;5069906;28;20196;-73
2023/10/10 02:09:33;;;;;;;3.43;2.20;;;;;;;;;;5070229;28;20701;-73
2023/10/10 02:12:08;;;;;;;3.93;2.50;;;;;;;;;;5069408;28;20200;-73
2023/10/10 02:14:36;;;;;;;6.47;2.43;;;;;;;;;;5070681;28;20205;-73
2023/10/10 02:17:15;;;;;;;2.93;2.63;;;;;;;;;;5069907;28;20203;-73
2023/10/10 02:19:53;;;;;;;7.30;2.73;;;;;;;;;;5069991;28;20224;-73
2023/10/10 02:22:33;;;;;;;6.80;2.77;;;;;;;;;;5070635;28;20209;-73
2023/10/10 02:25:36;;;;;;;3.07;2.27;;;;;;;;;;5070156;28;20208;-73
2023/10/10 02:28:02;;;;;;;3.77;2.23;;;;;;;;;;5069355;28;20683;-73
2023/10/10 02:30:35;;;;;;;4.17;2.77;;;;;;;;;;5065435;28;20203;-73
2023/10/10 02:33:15;;;;;;;4.47;3.13;;;;;;;;;;5057834;28;20197;-73
2023/10/10 02:35:55;;;;;;;6.23;2.20;;;;;;;;;;5054651;28;20255;-74
2023/10/10 02:38:31;;;;;;;7.17;3.07;;;;;;;;;;5055435;28;20221;-73
2023/10/10 02:41:14;;;;;;;8.87;3.30;;;;;;;;;;5058862;28;20282;-73
2023/10/10 02:43:54;;;;;;;2.90;2.53;;;;;;;;;;5055624;28;20360;-72
2023/10/10 02:46:28;;;;;;;4.77;2.73;;;;;;;;;;5056848;28;20216;-73
2023/10/10 02:48:56;;;;;;;9.83;3.33;;;;;;;;;;5065174;28;20264;-72
2023/10/10 02:51:22;;;;;;;5.40;2.93;;;;;;;;;;5066760;28;20203;-72
2023/10/10 02:53:50;;;;;;;3.60;2.40;;;;;;;;;;5068589;28;20205;-73
2023/10/10 02:56:18;;;;;;;3.43;2.60;;;;;;;;;;5066646;28;20213;-73
2023/10/10 02:58:48;;;;;;;3.87;3.13;;;;;;;;;;5069071;28;20685;-72
2023/10/10 03:01:49;;;;;;;3.17;2.50;;;;;;;;;;5068419;28;20236;-73
2023/10/10 03:04:08;;;;;;;14.63;3.47;;;;;;;;;;5068822;28;20197;-73
2023/10/10 03:06:35;;;;;;;5.20;3.70;;;;;;;;;;5069613;28;20208;-73
2023/10/10 03:09:13;;;;;;;7.00;2.80;;;;;;;;;;5052700;28;20607;-72
2023/10/10 03:11:53;;;;;;;5.17;2.53;;;;;;;;;;5050242;28;20209;-73
2023/10/10 03:14:26;;;;;;;6.33;2.80;;;;;;;;;;5050763;28;20205;-73
2023/10/10 03:17:03;;;;;;;3.80;2.53;;;;;;;;;;5053236;28;20679;-73
2023/10/10 03:19:38;;;;;;;2.87;2.53;;;;;;;;;;5054439;28;20263;-73
2023/10/10 03:22:30;;;;;;;3.17;2.50;;;;;;;;;;5055854;28;20248;-72
2023/10/10 03:25:20;;;;;;;5.93;2.60;;;;;;;;;;5056720;28;20197;-73
2023/10/10 03:27:54;;;;;;;4.10;2.67;;;;;;;;;;5055315;28;20216;-73
2023/10/10 03:30:30;;;;;;;2.93;2.20;;;;;;;;;;5056984;28;20261;-73
2023/10/10 03:33:10;;;;;;;4.47;2.80;;;;;;;;;;5058756;28;20216;-73
2023/10/10 03:35:59;;;;;;;5.40;2.80;;;;;;;;;;5056504;28;20289;-73
2023/10/10 05:23:29;;;;;;;7.73;3.00;;;;;;;;;;5046110;28;20232;-73
2023/10/10 05:25:41;;;;;;;3.70;3.20;;;;;;;;;;5046576;28;20735;-73
2023/10/10 05:28:09;;;;;;;4.00;3.10;;;;;;;;;;5071021;28;20285;-73
2023/10/10 05:30:42;;;;;;;8.57;3.10;;;;;;;;;;5071103;28;20319;-73
2023/10/10 05:33:09;;;;;;;11.60;3.57;;;;;;;;;;5069900;28;20255;-73
2023/10/10 05:35:38;;;;;;;6.20;3.30;;;;;;;;;;5070976;28;20197;-73
2023/10/10 05:38:07;;;;;;;4.80;2.80;;;;;;;;;;5070366;28;20636;-73
2023/10/10 05:40:34;;;;;;;8.13;3.43;;;;;;;;;;5069361;28;20227;-74
2023/10/10 05:43:01;;;;;;;6.80;3.63;;;;;;;;;;5070833;28;20624;-73
2023/10/10 05:45:29;;;;;;;5.23;3.47;;;;;;;;;;5071253;28;20202;-73
2023/10/10 05:47:55;;;;;;;4.87;3.20;;;;;;;;;;5070775;28;20208;-73
2023/10/10 05:50:22;;;;;;;6.17;3.17;;;;;;;;;;5070496;28;20264;-74
2023/10/10 05:52:51;;;;;;;4.50;3.13;;;;;;;;;;5069955;28;20284;-73
2023/10/10 05:55:18;;;;;;;6.53;3.00;;;;;;;;;;5070720;28;20283;-74
2023/10/10 05:57:45;;;;;;;10.00;2.97;;;;;;;;;;5070023;28;20691;-73
2023/10/10 06:00:13;;;;;;;7.90;3.40;;;;;;;;;;5070731;28;20649;-73
2023/10/10 06:02:42;;;;;;;4.90;3.03;;;;;;;;;;5070304;28;20293;-73
2023/10/10 06:05:10;;;;;;;4.20;2.63;;;;;;;;;;5070537;28;20228;-73
2023/10/10 06:07:37;;;;;;;5.60;2.63;;;;;;;;;;5070207;28;20237;-73
2023/10/10 06:10:14;;;;;;;6.80;2.70;;;;;;;;;;5070370;28;20239;-73
2023/10/10 06:12:41;;;;;;;5.23;3.13;;;;;;;;;;5044510;28;20215;-73
2023/10/10 06:15:08;;;;;;;5.60;3.00;;;;;;;;;;5070418;28;21075;-73
2023/10/10 06:17:35;;;;;;;5.13;2.83;;;;;;;;;;5070127;28;20741;-73
2023/10/10 06:20:02;;;;;;;5.43;3.00;;;;;;;;;;5070478;28;20302;-73
2023/10/10 06:22:30;;;;;;;6.43;2.93;;;;;;;;;;5070177;28;20205;-73
2023/10/10 06:24:58;;;;;;;3.20;2.83;;;;;;;;;;5069979;28;20683;-73
2023/10/10 06:27:28;;;;;;;5.13;3.00;;;;;;;;;;5070660;28;20201;-72
2023/10/10 06:29:58;;;;;;;6.33;3.20;;;;;;;;;;5070368;28;20696;-74
2023/10/10 06:32:26;;;;;;;3.60;3.20;;;;;;;;;;5070477;28;20232;-73
2023/10/10 06:35:13;;;;;;;7.60;3.23;;;;;;;;;;5070600;28;20205;-74
2023/10/10 06:37:42;;;;;;;5.83;3.27;;;;;;;;;;5069628;28;20201;-74
2023/10/10 06:40:10;;;;;;;4.87;4.33;;;;;;;;;;5070455;28;20245;-74
2023/10/10 06:42:39;;;;;;;5.03;3.20;;;;;;;;;;5069806;28;20597;-74
2023/10/10 06:45:11;;;;;;;5.50;3.20;;;;;;;;;;5070679;28;20204;-73
2023/10/10 06:47:39;;;;;;;4.60;2.73;;;;;;;;;;5070256;28;20287;-73
2023/10/10 06:50:10;;;;;;;3.33;3.03;;;;;;;;;;5070349;28;20696;-73
2023/10/10 06:52:37;;;;;;;6.93;3.30;;;;;;;;;;5072712;28;20197;-74
2023/10/10 06:55:10;;;;;;;4.23;3.43;;;;;;;;;;5073510;28;20204;-73
2023/10/10 06:57:39;;;;;;;5.10;3.90;;;;;;;;;;5073790;28;20229;-74
2023/10/10 07:00:20;;;;;;;9.47;3.30;;;;;;;;;;5073759;28;20604;-74
2023/10/10 07:02:49;;;;;;;2.90;2.60;;;;;;;;;;5073574;28;20205;-74
2023/10/10 07:05:18;;;;;;;4.70;3.60;;;;;;;;;;5073601;28;20284;-74
2023/10/10 07:07:45;;;;;;;6.07;3.63;;;;;;;;;;5073289;28;20205;-74
2023/10/10 07:10:24;;;;;;;6.83;4.10;;;;;;;;;;5073093;28;20209;-74
2023/10/10 07:12:54;;;;;;;4.67;3.07;;;;;;;;;;5049664;28;20201;-73
2023/10/10 07:15:22;;;;;;;5.80;3.43;;;;;;;;;;5072660;28;20676;-73
2023/10/10 07:17:49;;;;;;;6.30;3.50;;;;;;;;;;5073737;28;20209;-73
2023/10/10 07:23:02;;;;;;;6.17;3.33;;;;;;;;;;5073276;28;20220;-74
2023/10/10 07:25:43;;;;;;;5.57;3.07;;;;;;;;;;5073559;28;20266;-74
2023/10/10 07:28:14;;;;;;;5.10;2.90;;;;;;;;;;5073140;28;20205;-73
2023/10/10 07:30:44;;;;;;;6.47;4.17;;;;;;;;;;5073424;28;20206;-73
2023/10/10 07:33:13;;;;;;;6.73;3.20;;;;;;;;;;5071344;28;20271;-74
2023/10/10 07:35:44;;;;;;;5.37;3.40;;;;;;;;;;5061990;28;20200;-74
2023/10/10 07:38:11;;;;;;;4.20;3.20;;;;;;;;;;5059524;28;20202;-74
2023/10/10 07:40:38;;;;;;;9.23;4.13;;;;;;;;;;5073341;28;20585;-73
2023/10/10 07:43:07;;;;;;;4.30;3.37;;;;;;;;;;5072487;28;20638;-74
2023/10/10 07:45:43;;;;;;;4.93;3.90;;;;;;;;;;5073773;28;20267;-74
2023/10/10 07:51:06;;;;;;;7.97;3.90;;;;;;;;;;5072841;28;20308;-74
2023/10/10 07:53:42;;;;;;;10.43;4.40;;;;;;;;;;5073084;28;20190;-74
2023/10/10 07:56:09;;;;;;;8.77;3.40;;;;;;;;;;5072654;28;20205;-74
2023/10/10 07:58:44;;;;;;;6.47;3.20;;;;;;;;;;5072761;28;20209;-74
2023/10/10 08:01:17;;;;;;;5.47;3.07;;;;;;;;;;5072342;28;20700;-74
2023/10/10 08:03:47;;;;;;;10.73;4.13;;;;;;;;;;5071715;28;20270;-73
2023/10/10 08:06:18;;;;;;;7.87;3.77;;;;;;;;;;5046918;28;20202;-74
2023/10/10 08:08:48;;;;;;;9.30;4.20;;;;;;;;;;5072570;28;20209;-74
2023/10/10 08:11:26;;;;;;;6.97;4.10;;;;;;;;;;5072177;28;20208;-74
2023/10/10 08:13:52;;;;;;;3.97;3.43;;;;;;;;;;5072860;28;20621;-74
2023/10/10 08:16:22;;;;;;;5.60;3.90;;;;;;;;;;5072426;28;20269;-72
2023/10/10 08:18:53;;;;;;;4.03;3.70;;;;;;;;;;5072040;28;20289;-74
2023/10/10 08:21:23;;;;;;;5.83;3.90;;;;;;;;;;5071860;28;20243;-74
2023/10/10 08:23:53;;;;;;;6.90;3.97;;;;;;;;;;5072505;28;20281;-74
2023/10/10 08:26:26;;;;;;;6.00;4.40;;;;;;;;;;5072236;28;20294;-74
2023/10/10 08:28:53;;;;;;;5.63;4.70;;;;;;;;;;5046185;28;20682;-73
2023/10/10 08:31:22;;;;;;;7.37;4.37;;;;;;;;;;5071614;28;20213;-74
2023/10/10 08:33:49;;;;;;;7.23;4.97;;;;;;;;;;5071636;28;20199;-73
2023/10/10 08:36:26;;;;;;;5.60;4.20;;;;;;;;;;5072009;28;20205;-74
2023/10/10 08:38:56;;;;;;;7.00;4.23;;;;;;;;;;5071906;28;20671;-74
2023/10/10 08:41:25;;;;;;;6.80;4.80;;;;;;;;;;5071943;28;20221;-73
2023/10/10 08:43:57;;;;;;;7.50;4.53;;;;;;;;;;5072063;28;20290;-74
2023/10/10 08:46:29;;;;;;;5.40;4.73;;;;;;;;;;5071388;28;20279;-73
2023/10/10 08:48:58;;;;;;;12.63;5.97;;;;;;;;;;5071844;28;20327;-74
2023/10/10 08:51:32;;;;;;;5.33;4.57;;;;;;;;;;5071191;28;20266;-74
2023/10/10 08:54:00;;;;;;;5.57;5.07;;;;;;;;;;5071992;28;20201;-74
2023/10/10 08:56:26;;;;;;;8.07;4.37;;;;;;;;;;5045493;28;20287;-74
2023/10/10 08:58:55;;;;;;;12.43;4.87;;;;;;;;;;5071382;28;20205;-74
2023/10/10 09:01:22;;;;;;;6.87;4.07;;;;;;;;;;5071554;28;20279;-74
2023/10/10 09:03:51;;;;;;;4.33;3.97;;;;;;;;;;5071148;28;20684;-74
2023/10/10 09:06:20;;;;;;;5.17;4.37;;;;;;;;;;5071069;28;20302;-74
2023/10/10 09:08:49;;;;;;;6.53;4.17;;;;;;;;;;5071641;28;20649;-74
2023/10/10 09:11:16;;;;;;;6.23;3.53;;;;;;;;;;5071015;28;20749;-74
2023/10/10 09:13:53;;;;;;;3.50;3.20;;;;;;;;;;5071100;28;20208;-74
2023/10/10 09:16:28;;;;;;;8.50;4.80;;;;;;;;;;5071230;28;20291;-73
2023/10/10 09:19:10;;;;;;;5.00;3.77;;;;;;;;;;5070932;28;20196;-74
2023/10/10 09:21:50;;;;;;;3.97;3.20;;;;;;;;;;5070285;28;20260;-75
2023/10/10 09:24:27;;;;;;;5.07;3.90;;;;;;;;;;5071184;28;20209;-75
2023/10/10 09:26:58;;;;;;;5.93;3.73;;;;;;;;;;5071147;28;20197;-74
2023/10/10 09:29:34;;;;;;;4.37;3.80;;;;;;;;;;5071156;28;20201;-74
2023/10/10 09:32:05;;;;;;;5.37;3.00;;;;;;;;;;5070493;28;20195;-74
2023/10/10 09:34:40;;;;;;;3.30;3.00;;;;;;;;;;5071400;28;20210;-74
2023/10/10 09:37:13;;;;;;;4.83;3.83;;;;;;;;;;5070581;28;20215;-74
2023/10/10 09:39:42;;;;;;;5.37;4.30;;;;;;;;;;5070576;28;20201;-74
2023/10/10 09:42:27;;;;;;;4.90;3.83;;;;;;;;;;5070688;28;20239;-74
2023/10/10 09:45:27;;;;;;;5.33;3.33;;;;;;;;;;5070518;28;20604;-74
2023/10/10 09:47:56;;;;;;;4.70;4.20;;;;;;;;;;5070666;28;20197;-73
2023/10/10 09:50:45;;;;;;;5.00;3.80;;;;;;;;;;5070923;28;20233;-74
2023/10/10 09:53:21;;;;;;;6.63;3.40;;;;;;;;;;5070476;28;20232;-73
2023/10/10 09:55:53;;;;;;;5.33;4.83;;;;;;;;;;5070938;28;20196;-74
2023/10/10 09:58:26;;;;;;;4.77;3.23;;;;;;;;;;5070439;28;20208;-74
2023/10/10 10:01:04;;;;;;;5.60;3.10;;;;;;;;;;5070492;28;20734;-74
2023/10/10 10:03:42;;;;;;;5.83;3.40;;;;;;;;;;5070707;28;20193;-74
2023/10/10 10:06:35;;;;;;;3.80;3.50;;;;;;;;;;5070405;28;20205;-74
2023/10/10 10:09:45;;;;;;;9.20;4.90;;;;;;;;;;5070281;28;20233;-73
2023/10/10 10:12:30;;;;;;;6.97;3.20;;;;;;;;;;5050632;28;20585;-73
2023/10/10 10:15:05;;;;;;;4.67;2.60;;;;;;;;;;5069974;28;20197;-74
2023/10/10 10:17:47;;;;;;;9.50;3.47;;;;;;;;;;5044489;28;20204;-72
2023/10/10 10:20:21;;;;;;;8.80;3.33;;;;;;;;;;5070458;28;20280;-71
2023/10/10 10:22:53;;;;;;;12.07;4.43;;;;;;;;;;5069735;28;20197;-72
2023/10/10 10:25:25;;;;;;;5.33;3.43;;;;;;;;;;5069788;28;20668;-71
2023/10/10 10:28:10;;;;;;;3.47;3.17;;;;;;;;;;5073796;28;20705;-71
2023/10/10 10:30:50;;;;;;;4.47;3.37;;;;;;;;;;5049830;28;20757;-71
2023/10/10 10:33:20;;;;;;;3.37;2.90;;;;;;;;;;5073383;28;20209;-71
2023/10/10 10:36:16;;;;;;;4.27;3.53;;;;;;;;;;5074871;28;20208;-71
2023/10/10 10:41:42;;;;;;;4.17;3.67;;;;;;;;;;5073219;28;20235;-72
2023/10/10 10:44:12;;;;;;;3.97;3.53;;;;;;;;;;5074525;28;20226;-72
2023/10/10 10:46:48;;;;;;;4.60;4.17;;;;;;;;;;5073658;28;20674;-72
2023/10/10 10:49:15;;;;;;;3.50;3.20;;;;;;;;;;5073802;28;20240;-72
2023/10/10 10:51:48;;;;;;;3.87;3.47;;;;;;;;;;5074169;28;20212;-72
2023/10/10 10:54:35;;;;;;;4.20;2.83;;;;;;;;;;5073477;28;20197;-72
2023/10/10 10:57:02;;;;;;;3.63;3.27;;;;;;;;;;5073664;28;20206;-73
2023/10/10 10:59:38;;;;;;;3.00;2.40;;;;;;;;;;5074062;28;20211;-72
2023/10/10 11:02:14;;;;;;;6.87;2.93;;;;;;;;;;5073294;28;20307;-72
2023/10/10 11:04:47;;;;;;;3.57;2.83;;;;;;;;;;5074307;28;20207;-72
2023/10/10 11:07:27;;;;;;;2.73;2.53;;;;;;;;;;5073437;28;20197;-72
2023/10/10 11:10:06;;;;;;;3.00;2.50;;;;;;;;;;5073674;28;20299;-71
2023/10/10 11:12:36;;;;;;;2.77;2.57;;;;;;;;;;5073573;28;20193;-72
2023/10/10 11:15:07;;;;;;;3.40;2.87;;;;;;;;;;5073851;28;20587;-72
2023/10/10 11:17:38;;;;;;;3.33;2.83;;;;;;;;;;5073511;28;20201;-72
2023/10/10 11:20:26;;;;;;;6.83;2.83;;;;;;;;;;5072837;28;20254;-72
2023/10/10 11:22:54;;;;;;;2.77;2.43;;;;;;;;;;5073601;28;20234;-72
2023/10/10 11:25:35;;;;;;;3.07;2.47;;;;;;;;;;5073689;28;20205;-72
2023/10/10 11:28:03;;;;;;;2.20;2.10;;;;;;;;;;5073402;28;20229;-72
2023/10/10 11:30:30;;;;;;;3.83;2.50;;;;;;;;;;5073202;28;20216;-73
2023/10/10 11:33:16;;;;;;;11.07;7.47;;;;;;;;;;5073774;28;20211;-72
2023/10/10 11:35:46;;;;;;;5.77;4.13;;;;;;;;;;5051703;28;20686;-72
2023/10/10 11:38:33;;;;;;;2.80;2.50;;;;;;;;;;5058535;28;20287;-72
2023/10/10 11:41:08;;;;;;;4.23;2.47;;;;;;;;;;5073168;28;20230;-72
2023/10/10 11:43:38;;;;;;;3.80;2.63;;;;;;;;;;5073080;28;20207;-72
2023/10/10 11:46:05;;;;;;;3.50;2.93;;;;;;;;;;5073174;28;20284;-72
2023/10/10 11:48:42;;;;;;;2.20;2.00;;;;;;;;;;5073014;28;20201;-72
2023/10/10 11:51:11;;;;;;;2.60;2.40;;;;;;;;;;5072565;28;20291;-71
2023/10/10 11:53:38;;;;;;;6.17;3.10;;;;;;;;;;5073220;28;20232;-72
2023/10/10 11:56:11;;;;;;;5.93;3.23;;;;;;;;;;5059079;28;20201;-72
2023/10/10 11:58:38;;;;;;;2.50;2.30;;;;;;;;;;5073129;28;20235;-72
2023/10/10 12:01:06;;;;;;;3.23;2.53;;;;;;;;;;5073011;28;20229;-71
2023/10/10 12:03:41;;;;;;;3.10;2.80;;;;;;;;;;5072374;28;20758;-72
2023/10/10 12:06:14;;;;;;;3.43;2.50;;;;;;;;;;5072703;28;20204;-72
2023/10/10 12:08:44;;;;;;;6.70;2.20;;;;;;;;;;5072662;28;20220;-72
2023/10/10 12:11:15;;;;;;;3.20;2.17;;;;;;;;;;5072802;28;20212;-72
2023/10/10 12:13:44;;;;;;;2.60;2.40;;;;;;;;;;5072475;28;20635;-71
2023/10/10 12:16:11;;;;;;;3.20;2.90;;;;;;;;;;5072517;28;20197;-72
2023/10/10 12:18:44;;;;;;;5.33;4.40;;;;;;;;;;5072169;28;20284;-72
2023/10/10 12:21:13;;;;;;;7.37;3.83;;;;;;;;;;5072592;28;20220;-73
2023/10/10 12:23:40;;;;;;;4.43;2.90;;;;;;;;;;5071666;28;20236;-72
2023/10/10 12:26:08;;;;;;;2.77;2.57;;;;;;;;;;5072915;28;20209;-72
2023/10/10 12:28:36;;;;;;;3.13;2.33;;;;;;;;;;5072105;28;20293;-73
2023/10/10 12:31:04;;;;;;;5.40;3.07;;;;;;;;;;5072174;28;20205;-72
2023/10/10 12:33:35;;;;;;;2.80;2.60;;;;;;;;;;5071994;28;20209;-72
2023/10/10 12:36:07;;;;;;;5.13;2.30;;;;;;;;;;5072755;28;20236;-72
2023/10/10 12:38:34;;;;;;;3.20;2.73;;;;;;;;;;5046679;28;20250;-72
2023/10/10 12:41:01;;;;;;;3.40;2.40;;;;;;;;;;5072251;28;20221;-72
2023/10/10 12:43:27;;;;;;;2.93;2.27;;;;;;;;;;5071807;28;20205;-72
2023/10/10 12:45:55;;;;;;;2.97;2.37;;;;;;;;;;5071406;28;20205;-72
2023/10/10 12:48:22;;;;;;;3.57;2.20;;;;;;;;;;5071767;28;20686;-72
2023/10/10 12:50:50;;;;;;;1.93;1.70;;;;;;;;;;5071158;28;20627;-72
2023/10/10 12:53:19;;;;;;;1.60;1.50;;;;;;;;;;5071951;28;20632;-72
2023/10/10 12:55:50;;;;;;;2.27;2.07;;;;;;;;;;5071450;28;20205;-72
2023/10/10 12:58:19;;;;;;;2.57;2.10;;;;;;;;;;5071607;28;20692;-72
2023/10/10 13:00:51;;;;;;;2.37;2.00;;;;;;;;;;5071404;28;20694;-72
2023/10/10 13:03:20;;;;;;;1.97;1.80;;;;;;;;;;5071669;28;20745;-72
2023/10/10 13:05:50;;;;;;;2.57;1.70;;;;;;;;;;5067160;28;20202;-72
2023/10/10 13:08:17;;;;;;;5.07;1.80;;;;;;;;;;5062904;28;20240;-72
2023/10/10 13:10:45;;;;;;;3.53;1.67;;;;;;;;;;5071604;28;20208;-71
2023/10/10 13:13:15;;;;;;;2.03;1.83;;;;;;;;;;5070629;28;20212;-72
2023/10/10 13:15:50;;;;;;;2.60;1.97;;;;;;;;;;5070697;28;20199;-72
2023/10/10 13:18:24;;;;;;;7.60;2.60;;;;;;;;;;5071183;28;20197;-72
2023/10/10 13:20:53;;;;;;;3.90;1.80;;;;;;;;;;5071877;28;20286;-71
2023/10/10 13:23:21;;;;;;;3.67;2.57;;;;;;;;;;5070600;28;20212;-72
2023/10/10 13:25:49;;;;;;;4.80;1.80;;;;;;;;;;5071147;28;20248;-72
2023/10/10 13:28:21;;;;;;;5.07;1.93;;;;;;;;;;5071013;28;20201;-72
2023/10/10 13:30:48;;;;;;;26.53;3.43;;;;;;;;;;5071136;28;20212;-72
2023/10/10 13:33:15;;;;;;;5.90;2.00;;;;;;;;;;5071066;28;20627;-72
2023/10/10 13:35:42;;;;;;;4.03;1.93;;;;;;;;;;5071206;28;20621;-72
2023/10/10 13:38:11;;;;;;;2.13;1.90;;;;;;;;;;5070520;28;20734;-72
2023/10/10 13:40:45;;;;;;;2.00;1.90;;;;;;;;;;5070906;28;20205;-72
2023/10/10 13:43:16;;;;;;;2.30;1.90;;;;;;;;;;5070701;28;20582;-72
2023/10/10 13:45:44;;;;;;;1.87;1.67;;;;;;;;;;5071377;28;20270;-72
2023/10/10 13:48:13;;;;;;;4.33;2.00;;;;;;;;;;5069996;28;20197;-72
2023/10/10 13:50:44;;;;;;;2.13;1.90;;;;;;;;;;5070457;28;20261;-72
2023/10/10 13:53:13;;;;;;;5.60;2.43;;;;;;;;;;5070093;28;20687;-72
2023/10/10 13:55:42;;;;;;;2.50;2.30;;;;;;;;;;5070868;28;20204;-72
2023/10/10 13:58:12;;;;;;;4.37;1.90;;;;;;;;;;5070319;28;20624;-72
2023/10/10 14:00:43;;;;;;;4.90;2.00;;;;;;;;;;5069364;28;20593;-72
2023/10/10 14:03:14;;;;;;;2.20;1.93;;;;;;;;;;5070561;28;20236;-72
2023/10/10 14:06:00;;;;;;;7.70;2.13;;;;;;;;;;5070724;28;20201;-72
2023/10/10 14:08:30;;;;;;;4.17;2.03;;;;;;;;;;5070956;28;20223;-72
2023/10/10 14:10:59;;;;;;;5.47;2.40;;;;;;;;;;5070013;28;20660;-72
2023/10/10 14:13:26;;;;;;;11.17;3.03;;;;;;;;;;5070039;28;20205;-72
2023/10/10 14:15:56;;;;;;;5.90;2.47;;;;;;;;;;5054858;28;20632;-72
2023/10/10 14:18:24;;;;;;;3.80;1.90;;;;;;;;;;5055448;28;21167;-71
2023/10/10 14:20:51;;;;;;;4.43;2.03;;;;;;;;;;5065744;28;20208;-72
2023/10/10 14:23:22;;;;;;;3.80;3.37;;;;;;;;;;5067000;28;20245;-70
2023/10/10 14:25:50;;;;;;;2.50;2.07;;;;;;;;;;5044864;28;20197;-70
2023/10/10 14:28:18;;;;;;;2.53;2.23;;;;;;;;;;5064297;28;20223;-72
2023/10/10 14:30:48;;;;;;;2.77;2.30;;;;;;;;;;5062638;28;20213;-72
2023/10/10 14:33:16;;;;;;;5.47;2.37;;;;;;;;;;5064773;28;20250;-72
2023/10/10 14:35:43;;;;;;;3.97;2.37;;;;;;;;;;5070144;28;20235;-72
2023/10/10 14:38:14;;;;;;;1.90;1.80;;;;;;;;;;5069762;28;20201;-73
2023/10/10 14:40:41;;;;;;;2.50;2.30;;;;;;;;;;5070567;28;20266;-73
2023/10/10 14:43:10;;;;;;;3.43;2.17;;;;;;;;;;5066538;28;20742;-73
2023/10/10 14:45:42;;;;;;;6.90;2.43;;;;;;;;;;5060217;28;20225;-73
2023/10/10 14:48:18;;;;;;;5.30;2.13;;;;;;;;;;5069316;28;20697;-73
2023/10/10 14:50:52;;;;;;;3.10;2.80;;;;;;;;;;5070043;28;20228;-73
2023/10/10 14:53:22;;;;;;;2.27;2.07;;;;;;;;;;5045506;28;20197;-72
2023/10/10 14:55:51;;;;;;;2.50;2.30;;;;;;;;;;5069289;28;20698;-72
2023/10/10 14:58:21;;;;;;;2.73;2.43;;;;;;;;;;5069742;28;20204;-73
2023/10/10 15:00:50;;;;;;;3.80;2.30;;;;;;;;;;5069748;28;20201;-72
2023/10/10 15:03:18;;;;;;;2.77;2.10;;;;;;;;;;5070025;28;20353;-73
2023/10/10 15:05:50;;;;;;;2.23;2.03;;;;;;;;;;5069373;28;20201;-73
2023/10/10 15:08:18;;;;;;;3.63;2.50;;;;;;;;;;5069674;28;20193;-75
2023/10/10 15:10:44;;;;;;;6.00;2.47;;;;;;;;;;5051290;28;20202;-75
2023/10/10 15:13:14;;;;;;;4.13;2.43;;;;;;;;;;5051208;28;20263;-75
2023/10/10 15:15:46;;;;;;;4.30;2.60;;;;;;;;;;5053548;28;20293;-74
2023/10/10 15:18:16;;;;;;;4.93;2.70;;;;;;;;;;5052916;28;20600;-75
2023/10/10 15:20:46;;;;;;;6.07;2.43;;;;;;;;;;5041636;28;20252;-74
2023/10/10 15:23:18;;;;;;;3.93;2.77;;;;;;;;;;5054918;28;20256;-74
2023/10/10 15:25:47;;;;;;;3.13;2.83;;;;;;;;;;5053995;28;20303;-75
2023/10/10 15:28:13;;;;;;;5.37;2.90;;;;;;;;;;5056332;28;20206;-75
2023/10/10 15:30:41;;;;;;;4.43;2.47;;;;;;;;;;5054914;28;20275;-75
2023/10/10 15:33:10;;;;;;;3.87;2.27;;;;;;;;;;5069788;28;20201;-74
2023/10/10 15:35:42;;;;;;;2.40;2.20;;;;;;;;;;5073083;28;20197;-74
2023/10/10 15:38:11;;;;;;;2.73;2.40;;;;;;;;;;5072899;28;20330;-73
2023/10/10 15:40:39;;;;;;;3.73;2.50;;;;;;;;;;5073323;28;20258;-75
2023/10/10 15:43:11;;;;;;;3.90;2.87;;;;;;;;;;5072840;28;20260;-74
2023/10/10 15:45:42;;;;;;;4.70;2.67;;;;;;;;;;5072655;28;20216;-74
2023/10/10 15:48:21;;;;;;;2.67;1.83;;;;;;;;;;5072893;28;20220;-75
2023/10/10 15:50:51;;;;;;;2.67;2.23;;;;;;;;;;5072143;28;20208;-74
2023/10/10 15:53:20;;;;;;;2.20;2.00;;;;;;;;;;5072917;28;20205;-74
2023/10/10 15:55:53;;;;;;;3.13;1.73;;;;;;;;;;5072652;28;20271;-74
2023/10/10 15:58:25;;;;;;;2.00;1.80;;;;;;;;;;5072747;28;20201;-74
2023/10/10 16:01:30;;;;;;;3.50;1.83;;;;;;;;;;5072408;28;20209;-74
2023/10/10 16:04:03;;;;;;;2.43;2.10;;;;;;;;;;5072046;28;20228;-74
2023/10/10 16:06:33;;;;;;;2.87;2.33;;;;;;;;;;5072630;28;20219;-74
2023/10/10 16:09:10;;;;;;;5.40;2.50;;;;;;;;;;5072509;28;20198;-73
2023/10/10 16:11:36;;;;;;;4.20;3.07;;;;;;;;;;5060658;28;20213;-74
2023/10/10 16:14:08;;;;;;;1.93;1.73;;;;;;;;;;5072013;28;20201;-74
2023/10/10 16:16:35;;;;;;;4.13;2.10;;;;;;;;;;5072174;28;20201;-75
2023/10/10 16:19:04;;;;;;;4.60;3.03;;;;;;;;;;5072704;28;20193;-74
2023/10/10 16:21:31;;;;;;;5.37;3.27;;;;;;;;;;5072535;28;20208;-74
2023/10/10 16:23:59;;;;;;;1.80;1.70;;;;;;;;;;5071575;28;20282;-74
2023/10/10 16:26:26;;;;;;;4.97;2.00;;;;;;;;;;5071508;28;20212;-74
2023/10/10 16:28:52;;;;;;;9.80;5.17;;;;;;;;;;5070764;28;20212;-74
2023/10/10 16:31:20;;;;;;;5.80;4.10;;;;;;;;;;5071475;28;20212;-74
2023/10/10 16:33:49;;;;;;;7.40;3.13;;;;;;;;;;5072582;28;20288;-74
2023/10/10 16:36:18;;;;;;;9.30;3.37;;;;;;;;;;5071652;28;20255;-74
2023/10/10 16:38:45;;;;;;;4.37;2.57;;;;;;;;;;5072244;28;20644;-74
2023/10/10 16:41:12;;;;;;;2.77;2.47;;;;;;;;;;5070927;28;20205;-74
2023/10/10 16:43:38;;;;;;;1.80;1.70;;;;;;;;;;5071862;28;20342;-74
2023/10/10 16:46:09;;;;;;;3.97;1.73;;;;;;;;;;5071025;28;20197;-74
2023/10/10 16:48:38;;;;;;;8.57;3.43;;;;;;;;;;5071577;28;20208;-74
2023/10/10 16:51:08;;;;;;;7.70;2.27;;;;;;;;;;5071472;28;20204;-74
2023/10/10 16:53:39;;;;;;;3.70;2.10;;;;;;;;;;5071598;28;20235;-74
2023/10/10 16:56:07;;;;;;;2.93;1.87;;;;;;;;;;5070713;28;20197;-74
2023/10/10 16:58:38;;;;;;;2.70;2.37;;;;;;;;;;5071754;28;20291;-74
2023/10/10 17:01:06;;;;;;;2.47;2.00;;;;;;;;;;5071301;28;20781;-74
2023/10/10 17:03:33;;;;;;;3.17;2.83;;;;;;;;;;5070983;28;20235;-74